Time;durP1;ratioP1;P1;durP2;ratioP2;P2;SDS_P1;SDS_P2;PMS_P1;PMS_P2;Temp;Humidity;BMP_temperature;BMP_pressure;BME280_temperature;BME280_humidity;BME280_pressure;Samples;Min_cycle;Max_cycle;Signal;HPM_P1;HPM_P2
2022/08/02 00:01:41;;;;;;;6.07;3.30;;;;;;;14.96;64.28;101829.91;5003863;28;20459;-76
2022/08/02 00:04:07;;;;;;;6.90;3.10;;;;;;;14.98;63.97;101828.00;4993979;28;20033;-76
2022/08/02 00:06:33;;;;;;;5.90;3.20;;;;;;;15.06;63.50;101835.19;5005437;28;20133;-76
2022/08/02 00:08:58;;;;;;;8.30;3.30;;;;;;;15.02;64.22;101828.56;5004659;28;20145;-76
2022/08/02 00:11:24;;;;;;;9.88;3.65;;;;;;;15.01;64.03;101826.91;5006202;28;20030;-76
2022/08/02 00:13:49;;;;;;;6.90;3.00;;;;;;;15.13;63.33;101831.09;4992527;28;20049;-77
2022/08/02 00:16:14;;;;;;;8.98;3.40;;;;;;;15.11;64.70;101827.78;5001153;28;20029;-77
2022/08/02 00:18:40;;;;;;;6.82;3.03;;;;;;;14.95;64.86;101832.66;5012751;28;20129;-77
2022/08/02 00:21:05;;;;;;;7.15;3.38;;;;;;;14.91;64.93;101826.00;5008063;28;20033;-76
2022/08/02 00:23:31;;;;;;;5.88;3.05;;;;;;;14.95;65.01;101827.41;5007216;28;20179;-76
2022/08/02 00:25:57;;;;;;;7.15;3.38;;;;;;;14.98;64.74;101821.94;5012585;28;20026;-76
2022/08/02 00:28:23;;;;;;;7.40;3.22;;;;;;;15.02;65.04;101823.31;5011766;28;20439;-77
2022/08/02 00:30:49;;;;;;;7.45;3.42;;;;;;;14.89;65.62;101818.31;5001029;28;20022;-77
2022/08/02 00:33:14;;;;;;;6.72;3.15;;;;;;;14.91;66.06;101820.78;5009289;28;20034;-76
2022/08/02 00:35:39;;;;;;;7.15;3.20;;;;;;;14.83;66.66;101814.44;5003995;28;20028;-76
2022/08/02 00:38:05;;;;;;;6.78;3.35;;;;;;;14.69;66.41;101812.16;5003851;28;20076;-76
2022/08/02 00:40:30;;;;;;;5.43;3.03;;;;;;;14.76;66.53;101808.06;5014485;28;20021;-76
2022/08/02 00:43:07;;;;;;;8.23;3.67;;;;;;;14.80;66.36;101809.47;5004603;28;20037;-77
2022/08/02 00:45:33;;;;;;;6.43;3.10;;;;;;;14.82;65.64;101807.56;5002300;28;20034;-77
2022/08/02 00:47:59;;;;;;;5.57;3.28;;;;;;;14.84;65.92;101808.25;5003925;28;20410;-77
2022/08/02 00:50:25;;;;;;;6.10;3.33;;;;;;;14.98;65.02;101806.28;4996333;28;20029;-76
2022/08/02 00:52:51;;;;;;;6.45;3.13;;;;;;;15.01;64.77;101799.00;5017837;28;20047;-76
2022/08/02 00:55:16;;;;;;;6.80;3.10;;;;;;;15.02;65.12;101808.47;5002738;28;20370;-77
2022/08/02 00:57:41;;;;;;;6.10;2.80;;;;;;;15.06;64.52;101811.66;5008395;28;20057;-76
2022/08/02 01:00:08;;;;;;;7.57;2.97;;;;;;;15.04;64.13;101800.53;5006072;28;20030;-76
2022/08/02 01:02:33;;;;;;;6.53;2.80;;;;;;;15.00;63.85;101793.91;5010647;28;20027;-76
2022/08/02 01:04:59;;;;;;;6.75;2.92;;;;;;;15.02;63.65;101794.59;5009210;28;20356;-77
2022/08/02 01:07:25;;;;;;;5.50;3.13;;;;;;;14.90;65.49;101793.84;5007524;28;20042;-76
2022/08/02 01:09:50;;;;;;;6.32;2.97;;;;;;;14.69;65.50;101791.28;5017029;28;20092;-77
2022/08/02 01:12:15;;;;;;;7.20;2.72;;;;;;;14.66;65.75;101791.50;5005212;28;20121;-76
2022/08/02 01:14:44;;;;;;;7.88;3.10;;;;;;;14.57;65.62;101781.84;5002232;28;20038;-76
2022/08/02 01:17:22;;;;;;;5.30;2.97;;;;;;;14.57;65.96;101789.69;5000096;28;20092;-77
2022/08/02 01:19:54;;;;;;;;;;;;;;;14.88;64.83;101799.22;5006965;28;20056;-76
2022/08/02 01:22:44;;;;;;;6.03;2.80;;;;;;;14.66;65.52;101796.75;5008059;28;19913;-76
2022/08/02 01:25:37;;;;;;;6.78;2.70;;;;;;;14.71;65.78;101789.34;5008947;28;20072;-76
2022/08/02 01:28:08;;;;;;;6.50;2.70;;;;;;;14.69;65.51;101786.06;5005452;28;20056;-76
2022/08/02 01:30:34;;;;;;;7.65;2.85;;;;;;;14.64;66.38;101797.84;5001067;28;20034;-76
2022/08/02 01:33:03;;;;;;;4.72;2.50;;;;;;;14.69;65.86;101780.81;5004105;28;20030;-76
2022/08/02 01:35:42;;;;;;;6.88;2.67;;;;;;;14.82;65.16;101786.66;4992050;28;20109;-76
2022/08/02 01:38:38;;;;;;;7.93;3.00;;;;;;;14.73;65.38;101763.94;5004828;28;20813;-77
2022/08/02 01:41:06;;;;;;;6.75;2.88;;;;;;;14.75;64.96;101769.88;5005773;28;20096;-76
2022/08/02 01:43:34;;;;;;;6.15;2.80;;;;;;;14.75;65.16;101776.88;4995606;28;20117;-76
2022/08/02 01:46:02;;;;;;;7.80;3.17;;;;;;;14.70;65.09;101766.81;5004965;28;20018;-76
2022/08/02 01:48:30;;;;;;;6.18;3.10;;;;;;;14.72;65.19;101775.31;5001666;28;20036;-76
2022/08/02 01:50:57;;;;;;;5.88;2.90;;;;;;;14.66;66.00;101770.63;5005608;28;20497;-76
2022/08/02 01:53:25;;;;;;;6.85;3.20;;;;;;;14.61;65.33;101762.34;5016200;28;20022;-76
2022/08/02 01:55:54;;;;;;;7.28;3.28;;;;;;;14.64;65.74;101766.50;5024966;28;20040;-76
2022/08/02 01:58:24;;;;;;;6.40;3.20;;;;;;;14.68;65.13;101766.13;5001987;28;20022;-76
2022/08/02 02:00:50;;;;;;;6.60;3.53;;;;;;;14.60;65.14;101760.69;5009866;28;20025;-76
2022/08/02 02:03:21;;;;;;;6.90;3.22;;;;;;;14.57;65.24;101771.41;5003882;28;20018;-76
2022/08/02 02:05:52;;;;;;;6.40;3.35;;;;;;;14.51;65.73;101762.31;5005646;28;20447;-77
2022/08/02 02:08:26;;;;;;;6.45;3.13;;;;;;;14.51;65.29;101769.31;5019313;28;20029;-75
2022/08/02 02:10:53;;;;;;;5.88;3.33;;;;;;;14.54;66.37;101756.00;5012014;28;20022;-75
2022/08/02 02:13:20;;;;;;;5.55;3.17;;;;;;;14.51;65.58;101766.69;4999849;28;20160;-76
2022/08/02 02:15:47;;;;;;;6.47;3.70;;;;;;;14.50;65.90;101754.59;5003685;28;20489;-76
2022/08/02 02:18:28;;;;;;;7.28;3.55;;;;;;;14.55;66.16;101752.41;5006757;28;20034;-76
2022/08/02 02:20:54;;;;;;;5.60;3.45;;;;;;;14.44;65.59;101753.28;5001731;28;20053;-75
2022/08/02 02:23:19;;;;;;;6.88;3.60;;;;;;;14.41;65.96;101756.16;5002482;28;20478;-76
2022/08/02 02:25:46;;;;;;;5.97;3.13;;;;;;;14.42;65.61;101746.53;5007723;28;20038;-76
2022/08/02 02:28:28;;;;;;;6.43;3.17;;;;;;;14.44;66.05;101742.00;5006218;28;20022;-76
2022/08/02 02:31:00;;;;;;;6.53;3.50;;;;;;;14.39;66.04;101752.00;5002733;28;20091;-76
2022/08/02 02:33:29;;;;;;;5.90;3.40;;;;;;;14.41;66.02;101750.13;4998719;28;20449;-76
2022/08/02 02:35:56;;;;;;;;;;;;;;;14.61;65.48;101751.91;5006938;28;20097;-76
2022/08/02 02:38:23;;;;;;;6.70;3.30;;;;;;;14.24;66.54;101734.06;5004111;28;19920;-76
2022/08/02 02:40:49;;;;;;;7.82;3.47;;;;;;;14.28;66.25;101740.69;5002399;28;20034;-76
2022/08/02 02:43:16;;;;;;;4.95;3.20;;;;;;;14.24;67.64;101747.13;5013426;28;20086;-76
2022/08/02 02:45:43;;;;;;;5.63;3.03;;;;;;;14.32;66.29;101749.91;5000713;28;20051;-76
2022/08/02 02:48:12;;;;;;;7.38;3.42;;;;;;;14.30;66.40;101738.78;5007411;28;20022;-76
2022/08/02 02:50:37;;;;;;;;;;;;;;;14.51;65.70;101740.59;5007317;28;20092;-76
2022/08/02 02:53:04;;;;;;;7.53;3.67;;;;;;;14.33;66.05;101730.66;5009831;28;20377;-76
2022/08/02 02:55:30;;;;;;;7.07;3.30;;;;;;;14.29;66.11;101721.47;4996012;28;20100;-76
2022/08/02 02:57:57;;;;;;;6.63;3.25;;;;;;;14.30;66.15;101727.50;4998804;28;20018;-76
2022/08/02 03:03:08;;;;;;;7.18;3.63;;;;;;;14.26;66.31;101721.72;5007180;28;20453;-77
2022/08/02 03:05:33;;;;;;;6.53;3.50;;;;;;;14.27;66.42;101722.53;5006419;28;20161;-75
2022/08/02 03:07:59;;;;;;;8.10;3.90;;;;;;;14.23;66.75;101721.97;4999561;28;20046;-76
2022/08/02 03:10:26;;;;;;;7.40;3.60;;;;;;;14.22;66.88;101717.72;4987188;28;20201;-76
2022/08/02 03:12:52;;;;;;;8.43;3.70;;;;;;;14.15;67.48;101719.16;5005761;28;20022;-76
2022/08/02 03:15:18;;;;;;;9.02;4.18;;;;;;;14.12;67.66;101724.63;4993921;28;20031;-76
2022/08/02 03:17:45;;;;;;;6.97;3.40;;;;;;;14.16;67.32;101733.84;5005524;28;20054;-76
2022/08/02 03:20:16;;;;;;;6.22;3.65;;;;;;;14.17;67.43;101738.13;5005931;28;20055;-76
2022/08/02 03:22:43;;;;;;;6.57;3.60;;;;;;;14.08;67.95;101729.28;5000407;28;20025;-77
2022/08/02 03:25:11;;;;;;;6.95;3.80;;;;;;;14.11;67.12;101733.44;5010939;28;20036;-76
2022/08/02 03:27:36;;;;;;;6.85;3.60;;;;;;;14.14;67.71;101730.56;5018545;28;20478;-76
2022/08/02 03:30:05;;;;;;;8.35;3.88;;;;;;;14.16;67.52;101731.25;5005893;28;20148;-76
2022/08/02 03:32:32;;;;;;;8.48;4.13;;;;;;;14.13;67.69;101728.91;5005026;28;20033;-76
2022/08/02 03:34:57;;;;;;;6.07;3.70;;;;;;;14.09;67.73;101706.63;4994345;28;20076;-76
2022/08/02 03:37:24;;;;;;;7.40;3.75;;;;;;;14.15;67.61;101708.72;5025439;28;20025;-76
2022/08/02 03:39:52;;;;;;;9.05;4.10;;;;;;;14.11;67.72;101702.13;5008694;28;20037;-76
2022/08/02 03:42:18;;;;;;;7.07;4.07;;;;;;;14.09;68.03;101704.84;5012997;28;20048;-76
2022/08/02 03:44:45;;;;;;;9.20;4.07;;;;;;;14.06;68.28;101704.28;5019991;28;20034;-76
2022/08/02 03:47:11;;;;;;;8.57;4.03;;;;;;;13.94;69.02;101711.31;5006538;28;20422;-76
2022/08/02 03:49:37;;;;;;;9.45;4.43;;;;;;;14.05;68.26;101700.03;5003099;28;20030;-76
2022/08/02 03:52:03;;;;;;;7.22;4.18;;;;;;;14.00;69.10;101694.34;4998198;28;20521;-76
2022/08/02 03:54:29;;;;;;;8.30;4.03;;;;;;;14.08;68.76;101702.38;4994926;28;20032;-77
2022/08/02 03:56:54;;;;;;;8.38;4.03;;;;;;;14.01;69.21;101696.81;5004444;28;20424;-76
2022/08/02 03:59:19;;;;;;;8.00;3.95;;;;;;;14.07;69.05;101698.09;5001722;28;20037;-77
2022/08/02 04:01:45;;;;;;;7.00;3.83;;;;;;;14.09;69.12;101702.22;5003521;28;20493;-76
2022/08/02 04:04:10;;;;;;;10.77;4.45;;;;;;;14.14;68.67;101694.03;5001197;28;20532;-76
2022/08/02 04:06:36;;;;;;;8.45;4.38;;;;;;;14.15;68.89;101693.06;4997784;28;20446;-76
2022/08/02 04:09:02;;;;;;;8.52;4.22;;;;;;;14.09;69.29;101693.56;5010770;28;20022;-76
2022/08/02 04:11:30;;;;;;;7.78;4.28;;;;;;;14.07;69.60;101690.28;4995594;28;20029;-76
2022/08/02 04:13:57;;;;;;;;;;;;;;;14.28;68.35;101698.13;5001697;28;20026;-76
2022/08/02 04:16:30;;;;;;;10.07;4.90;;;;;;;14.09;70.14;101698.78;5011418;28;19916;-76
2022/08/02 04:19:00;;;;;;;8.57;4.70;;;;;;;13.92;70.66;101696.75;5011636;28;20025;-76
2022/08/02 04:21:30;;;;;;;10.10;4.88;;;;;;;14.06;70.13;101699.06;5000863;28;20117;-76
2022/08/02 04:23:56;;;;;;;8.93;4.72;;;;;;;14.09;70.05;101693.56;5008909;28;20117;-76
2022/08/02 04:26:22;;;;;;;8.93;4.63;;;;;;;14.04;70.22;101695.72;4998574;28;20109;-76
2022/08/02 04:28:48;;;;;;;9.07;4.70;;;;;;;14.11;70.17;101702.13;5002900;28;20488;-76
2022/08/02 04:31:16;;;;;;;8.75;4.57;;;;;;;14.02;70.25;101693.25;5003047;28;20030;-76
2022/08/02 04:33:41;;;;;;;9.18;4.97;;;;;;;14.08;70.26;101707.59;5008832;28;20294;-77
2022/08/02 04:36:07;;;;;;;9.73;4.50;;;;;;;14.10;69.85;101710.88;5008843;28;20348;-76
2022/08/02 04:38:33;;;;;;;8.23;4.72;;;;;;;14.05;70.14;101713.06;4996957;28;20525;-77
2022/08/02 04:40:58;;;;;;;8.15;4.80;;;;;;;14.01;70.56;101706.44;5001800;28;20049;-77
2022/08/02 04:43:24;;;;;;;7.43;4.63;;;;;;;14.02;70.33;101703.69;5009538;28;20073;-76
2022/08/02 04:45:51;;;;;;;12.13;5.18;;;;;;;13.99;70.88;101713.53;5007218;28;20030;-75
2022/08/02 04:48:17;;;;;;;8.65;4.93;;;;;;;13.99;70.63;101705.72;5000963;28;20065;-76
2022/08/02 04:50:42;;;;;;;10.70;5.50;;;;;;;13.99;70.72;101698.75;5005878;28;20040;-76
2022/08/02 04:53:08;;;;;;;7.95;4.90;;;;;;;13.96;71.10;101698.97;5008621;28;20021;-77
2022/08/02 04:55:33;;;;;;;8.20;4.78;;;;;;;13.91;71.27;101689.88;4994411;28;20118;-76
2022/08/02 04:57:59;;;;;;;9.23;5.22;;;;;;;14.00;70.65;101703.00;4999211;28;20382;-76
2022/08/02 05:00:26;;;;;;;8.00;5.13;;;;;;;13.89;71.55;101691.78;5007141;28;20261;-76
2022/08/02 05:02:53;;;;;;;8.67;5.13;;;;;;;14.06;71.09;101699.06;5008960;28;20076;-76
2022/08/02 05:05:18;;;;;;;9.55;5.30;;;;;;;13.98;71.53;101696.25;5018075;28;20606;-76
2022/08/02 05:07:44;;;;;;;9.57;5.50;;;;;;;13.99;71.93;101700.50;5008138;28;20049;-77
2022/08/02 05:10:09;;;;;;;10.25;5.57;;;;;;;14.06;71.78;101699.88;5008765;28;20485;-76
2022/08/02 05:12:37;;;;;;;9.45;5.30;;;;;;;14.00;72.33;101699.56;5008481;28;20040;-76
2022/08/02 05:15:03;;;;;;;9.23;5.50;;;;;;;14.07;72.00;101695.50;5009345;28;20455;-76
2022/08/02 05:17:28;;;;;;;7.38;5.32;;;;;;;14.07;72.14;101692.88;5018251;28;20048;-76
2022/08/02 05:19:53;;;;;;;8.68;5.90;;;;;;;14.14;72.13;101685.38;5013251;28;20918;-77
2022/08/02 05:22:19;;;;;;;11.15;6.00;;;;;;;14.05;72.35;101673.94;5022604;28;20057;-76
2022/08/02 05:24:44;;;;;;;8.50;5.68;;;;;;;14.17;72.36;101678.13;5013383;28;20025;-77
2022/08/02 05:27:09;;;;;;;9.60;5.65;;;;;;;14.12;72.69;101664.63;5014823;28;20033;-78
2022/08/02 05:29:35;;;;;;;9.82;6.43;;;;;;;14.22;72.69;101670.75;5010185;28;20286;-77
2022/08/02 05:32:00;;;;;;;10.63;6.50;;;;;;;14.19;72.78;101673.59;5015112;28;20351;-76
2022/08/02 05:34:25;;;;;;;9.88;6.70;;;;;;;14.24;72.86;101674.06;5007363;28;20374;-75
2022/08/02 05:36:51;;;;;;;11.57;7.05;;;;;;;14.26;73.21;101672.13;5008764;28;20038;-75
2022/08/02 05:39:16;;;;;;;11.15;6.95;;;;;;;14.31;72.85;101675.19;5014567;28;20033;-77
2022/08/02 05:41:42;;;;;;;10.80;7.13;;;;;;;14.34;73.51;101664.50;5009997;28;20068;-75
2022/08/02 05:44:07;;;;;;;10.35;7.03;;;;;;;14.40;73.91;101664.94;5011469;28;20065;-77
2022/08/02 05:46:32;;;;;;;10.77;7.32;;;;;;;14.45;73.58;101675.78;4999233;28;21169;-76
2022/08/02 05:48:58;;;;;;;10.20;7.40;;;;;;;14.52;73.66;101671.78;5014822;28;20084;-76
2022/08/02 05:51:37;;;;;;;10.18;7.53;;;;;;;14.64;73.65;101683.78;5010952;28;20032;-76
2022/08/02 05:54:17;;;;;;;12.57;7.50;;;;;;;14.67;73.54;101683.50;5008021;28;20161;-76
2022/08/02 05:56:50;;;;;;;12.40;8.35;;;;;;;14.79;73.82;101686.84;5008585;28;20111;-76
2022/08/02 05:59:30;;;;;;;11.27;8.07;;;;;;;14.80;73.56;101678.06;5006720;28;20025;-77
2022/08/02 06:02:01;;;;;;;12.90;8.38;;;;;;;14.93;73.63;101683.06;5008217;28;20046;-75
2022/08/02 06:04:39;;;;;;;12.63;8.48;;;;;;;15.06;73.95;101688.88;5018340;28;20025;-76
2022/08/02 06:07:08;;;;;;;12.15;8.07;;;;;;;15.17;73.39;101686.16;5007599;28;20058;-76
2022/08/02 06:09:34;;;;;;;11.38;8.50;;;;;;;15.27;73.35;101687.00;5005689;28;20030;-76
2022/08/02 06:12:02;;;;;;;12.50;8.60;;;;;;;15.35;73.27;101684.53;4994993;28;20030;-76
2022/08/02 06:14:29;;;;;;;12.95;8.68;;;;;;;15.45;72.89;101673.28;5010441;28;20017;-76
2022/08/02 06:16:55;;;;;;;12.60;9.37;;;;;;;15.53;73.20;101676.03;5012764;28;20030;-76
2022/08/02 06:19:22;;;;;;;11.43;9.40;;;;;;;15.64;73.05;101675.91;5026923;28;20043;-76
2022/08/02 06:21:48;;;;;;;10.60;8.52;;;;;;;15.71;73.22;101671.78;4997084;28;20033;-75
2022/08/02 06:24:17;;;;;;;11.25;8.85;;;;;;;15.83;73.88;101673.31;5014618;28;20365;-77
2022/08/02 06:26:43;;;;;;;13.57;9.20;;;;;;;15.95;74.15;101670.56;5002135;28;20491;-75
2022/08/02 06:29:11;;;;;;;12.50;9.35;;;;;;;16.05;74.03;101671.34;4989126;28;20030;-75
2022/08/02 06:31:37;;;;;;;13.63;9.67;;;;;;;16.18;74.16;101677.13;5019207;28;20053;-75
2022/08/02 06:34:02;;;;;;;11.13;8.77;;;;;;;16.29;74.08;101679.59;5008122;28;20308;-76
2022/08/02 06:36:36;;;;;;;11.75;9.60;;;;;;;16.43;74.48;101681.75;5001238;28;20395;-76
2022/08/02 06:39:08;;;;;;;12.57;9.38;;;;;;;16.55;73.94;101673.72;4998814;28;20034;-76
2022/08/02 06:41:41;;;;;;;14.35;9.70;;;;;;;16.66;73.48;101670.91;4999405;28;20030;-76
2022/08/02 06:44:08;;;;;;;10.90;9.55;;;;;;;16.72;72.80;101675.59;5006115;28;20068;-75
2022/08/02 06:46:34;;;;;;;12.57;9.45;;;;;;;16.88;73.12;101675.81;5007123;28;20115;-76
2022/08/02 06:49:00;;;;;;;13.38;9.70;;;;;;;17.04;73.23;101682.22;5015877;28;20114;-76
2022/08/02 06:51:26;;;;;;;12.20;9.55;;;;;;;17.16;73.26;101678.44;5007567;28;20048;-76
2022/08/02 06:53:51;;;;;;;12.55;9.00;;;;;;;17.32;73.41;101667.28;4991028;28;20451;-75
2022/08/02 06:56:18;;;;;;;13.48;10.30;;;;;;;17.47;73.22;101666.63;5004920;28;20030;-75
2022/08/02 06:58:43;;;;;;;13.88;10.52;;;;;;;17.70;73.35;101671.41;5023497;28;20100;-75
2022/08/02 07:01:09;;;;;;;13.85;11.70;;;;;;;17.76;72.06;101666.41;5008975;28;20126;-77
2022/08/02 07:03:35;;;;;;;12.75;11.25;;;;;;;17.85;71.43;101659.44;5023673;28;20073;-76
2022/08/02 07:06:01;;;;;;;12.75;11.05;;;;;;;18.00;71.57;101663.13;5014780;28;20049;-76
2022/08/02 07:08:31;;;;;;;13.57;11.63;;;;;;;18.10;70.75;101654.34;5004302;28;20345;-76
2022/08/02 07:10:59;;;;;;;12.32;11.05;;;;;;;18.15;70.23;101654.72;4991402;28;20043;-79
2022/08/02 07:13:25;;;;;;;14.43;11.70;;;;;;;18.30;70.02;101653.19;5003620;28;20569;-76
2022/08/02 07:15:51;;;;;;;13.77;12.27;;;;;;;18.37;70.69;101656.81;4994432;28;20030;-76
2022/08/02 07:18:16;;;;;;;12.85;11.45;;;;;;;18.47;70.19;101654.91;4997931;28;20476;-76
2022/08/02 07:20:42;;;;;;;13.73;12.05;;;;;;;18.57;69.56;101654.78;5006705;28;20072;-77
2022/08/02 07:23:07;;;;;;;14.30;11.95;;;;;;;18.69;69.98;101652.72;4999726;28;20379;-76
2022/08/02 07:25:32;;;;;;;14.65;12.13;;;;;;;18.83;69.94;101649.50;5010284;28;20025;-76
2022/08/02 07:27:58;;;;;;;14.50;12.35;;;;;;;18.91;69.64;101646.91;4993517;28;20030;-77
2022/08/02 07:30:23;;;;;;;14.10;11.82;;;;;;;19.03;69.76;101648.25;5005562;28;20040;-77
2022/08/02 07:32:48;;;;;;;13.20;11.80;;;;;;;19.07;69.66;101646.94;5004224;28;20458;-77
2022/08/02 07:35:14;;;;;;;13.45;10.85;;;;;;;19.22;69.58;101654.22;5004822;28;20425;-77
2022/08/02 07:37:41;;;;;;;14.23;12.00;;;;;;;19.28;68.97;101648.31;5005963;28;20026;-77
2022/08/02 07:40:08;;;;;;;13.17;10.37;;;;;;;19.41;69.41;101653.91;5015528;28;20121;-77
2022/08/02 07:42:33;;;;;;;13.50;11.70;;;;;;;19.45;69.01;101639.47;5003507;28;20052;-77
2022/08/02 07:44:59;;;;;;;12.27;10.98;;;;;;;19.54;68.40;101642.91;5002712;28;20049;-76
2022/08/02 07:47:24;;;;;;;13.95;11.38;;;;;;;19.63;68.74;101642.78;4996690;28;20029;-77
2022/08/02 07:49:50;;;;;;;12.40;11.10;;;;;;;19.69;69.26;101640.47;5009711;28;20025;-77
2022/08/02 07:52:16;;;;;;;12.05;10.65;;;;;;;19.78;68.84;101636.84;5008140;28;20859;-76
2022/08/02 07:54:41;;;;;;;11.50;10.30;;;;;;;19.99;68.40;101652.94;5015264;28;20454;-76
2022/08/02 07:57:06;;;;;;;13.00;10.48;;;;;;;20.03;67.91;101653.44;5023053;28;20026;-77
2022/08/02 07:59:32;;;;;;;13.15;11.02;;;;;;;20.06;67.96;101638.13;5025785;28;20022;-77
2022/08/02 08:01:57;;;;;;;12.30;9.75;;;;;;;20.22;68.00;101647.00;5002486;28;20490;-77
2022/08/02 08:04:23;;;;;;;11.50;9.88;;;;;;;20.27;67.51;101647.31;5004282;28;20040;-77
2022/08/02 08:06:50;;;;;;;12.02;9.80;;;;;;;20.35;66.92;101648.09;4994020;28;20431;-77
2022/08/02 08:09:16;;;;;;;13.18;10.43;;;;;;;20.43;67.29;101640.19;4999445;28;20030;-77
2022/08/02 08:11:42;;;;;;;12.07;10.20;;;;;;;20.57;66.88;101636.03;5004488;28;20388;-77
2022/08/02 08:14:07;;;;;;;11.75;9.55;;;;;;;20.68;66.73;101630.38;5003917;28;20022;-77
2022/08/02 08:16:33;;;;;;;11.57;9.30;;;;;;;20.85;66.50;101632.94;4993227;28;20022;-77
2022/08/02 08:18:58;;;;;;;9.95;7.97;;;;;;;20.89;66.56;101628.97;5000430;28;20026;-78
2022/08/02 08:21:24;;;;;;;9.63;6.97;;;;;;;21.01;66.30;101632.03;4993859;28;20022;-77
2022/08/02 08:23:49;;;;;;;8.55;6.82;;;;;;;21.14;66.57;101622.53;4991017;28;20375;-77
2022/08/02 08:26:15;;;;;;;10.77;7.38;;;;;;;21.28;66.29;101636.00;4991658;28;20030;-77
2022/08/02 08:28:41;;;;;;;10.18;7.68;;;;;;;21.33;66.07;101628.38;5007496;28;20033;-77
2022/08/02 08:31:06;;;;;;;8.38;6.53;;;;;;;21.39;64.85;101620.59;5009208;28;20022;-77
2022/08/02 08:33:32;;;;;;;8.63;6.30;;;;;;;21.42;65.32;101625.50;5009638;28;20036;-77
2022/08/02 08:35:58;;;;;;;9.10;5.93;;;;;;;21.54;64.93;101628.56;4994434;28;20579;-77
2022/08/02 08:38:23;;;;;;;9.13;6.70;;;;;;;21.58;63.57;101621.94;4991622;28;20299;-77
2022/08/02 08:40:49;;;;;;;8.93;6.50;;;;;;;21.73;63.99;101633.34;5003417;28;20064;-77
2022/08/02 08:43:15;;;;;;;9.57;5.88;;;;;;;21.79;63.97;101637.06;5000736;28;20026;-78
2022/08/02 08:45:45;;;;;;;8.00;5.57;;;;;;;21.88;62.80;101624.63;5013308;28;20395;-78
2022/08/02 08:48:14;;;;;;;8.27;5.10;;;;;;;21.99;62.31;101626.81;5005424;28;20041;-77
2022/08/02 08:50:49;;;;;;;7.55;4.43;;;;;;;22.12;61.26;101632.31;5002597;28;20025;-77
2022/08/02 08:53:15;;;;;;;5.43;3.88;;;;;;;22.08;60.60;101635.47;5012299;28;20030;-77
2022/08/02 08:55:42;;;;;;;6.03;3.90;;;;;;;22.18;59.74;101636.88;5017533;28;20044;-77
2022/08/02 08:58:07;;;;;;;5.80;3.42;;;;;;;22.20;58.61;101642.84;4999311;28;20023;-77
2022/08/02 09:00:35;;;;;;;7.15;3.65;;;;;;;22.20;59.05;101634.91;5011214;28;20720;-77
2022/08/02 09:03:05;;;;;;;6.03;3.42;;;;;;;22.29;59.66;101637.44;5013109;28;20022;-76
2022/08/02 09:05:33;;;;;;;6.13;3.53;;;;;;;22.31;59.91;101632.78;5005532;28;20060;-76
2022/08/02 09:07:58;;;;;;;;;;;;;;;22.45;61.28;101643.38;5006296;28;20042;-78
2022/08/02 09:10:32;;;;;;;4.53;3.40;;;;;;;22.46;59.70;101645.00;5004916;28;19913;-77
2022/08/02 09:13:22;;;;;;;5.53;3.33;;;;;;;22.55;60.10;101642.28;5009201;28;20283;-76
2022/08/02 09:15:59;;;;;;;5.22;3.10;;;;;;;22.69;59.40;101639.59;4998959;28;20025;-77
2022/08/02 09:18:36;;;;;;;4.30;2.90;;;;;;;22.74;58.96;101631.09;5009213;28;20021;-78
2022/08/02 09:21:04;;;;;;;5.93;2.50;;;;;;;22.75;57.02;101622.97;5008814;28;20061;-77
2022/08/02 09:23:38;;;;;;;4.15;2.45;;;;;;;22.96;57.86;101629.34;5006660;28;20443;-77
2022/08/02 09:26:09;;;;;;;3.85;2.70;;;;;;;23.13;56.55;101619.34;5006834;28;20535;-77
2022/08/02 09:28:36;;;;;;;4.78;2.60;;;;;;;23.19;56.32;101619.41;5008567;28;20486;-77
2022/08/02 09:31:10;;;;;;;5.50;2.53;;;;;;;23.38;56.19;101622.44;5006989;28;20064;-77
2022/08/02 09:33:38;;;;;;;4.10;2.53;;;;;;;23.47;54.85;101619.47;5008462;28;20026;-77
2022/08/02 09:36:08;;;;;;;3.05;2.47;;;;;;;23.46;54.63;101625.78;4991724;28;20117;-77
2022/08/02 09:38:34;;;;;;;3.22;2.45;;;;;;;23.40;54.89;101615.09;5002970;28;20053;-77
2022/08/02 09:41:00;;;;;;;5.03;2.35;;;;;;;23.61;54.64;101628.34;5009449;28;20018;-78
2022/08/02 09:43:40;;;;;;;3.08;2.20;;;;;;;23.67;53.87;101619.66;4997509;28;20083;-77
2022/08/02 09:46:29;;;;;;;2.22;1.70;;;;;;;23.97;54.12;101632.69;5007701;28;20108;-78
2022/08/02 09:49:07;;;;;;;3.25;1.80;;;;;;;23.92;52.13;101630.66;5009108;28;20080;-78
2022/08/02 09:51:47;;;;;;;3.40;1.83;;;;;;;23.87;50.49;101626.94;4992333;28;20030;-78
2022/08/02 09:54:18;;;;;;;2.92;1.60;;;;;;;23.98;49.74;101623.75;5009743;28;20022;-77
2022/08/02 09:56:48;;;;;;;3.10;1.77;;;;;;;23.95;49.39;101634.72;5009852;28;20022;-78
2022/08/02 09:59:16;;;;;;;2.92;1.60;;;;;;;23.92;48.67;101629.84;5003492;28;20125;-78
2022/08/02 10:01:43;;;;;;;4.50;1.77;;;;;;;24.14;49.02;101627.91;5002777;28;20026;-79
2022/08/02 10:04:11;;;;;;;3.78;1.75;;;;;;;24.10;49.03;101638.09;5009604;28;20105;-79
2022/08/02 10:06:38;;;;;;;3.17;1.77;;;;;;;24.18;48.16;101624.69;5006431;28;20077;-77
2022/08/02 10:09:05;;;;;;;2.17;1.60;;;;;;;24.29;47.79;101629.44;4989323;28;20014;-78
2022/08/02 10:11:31;;;;;;;3.65;1.77;;;;;;;24.47;46.85;101634.25;4989889;28;20427;-77
2022/08/02 10:13:57;;;;;;;2.47;1.40;;;;;;;24.55;47.03;101631.44;4996018;28;20010;-77
2022/08/02 10:16:23;;;;;;;2.97;1.80;;;;;;;24.77;47.85;101634.75;4995875;28;20034;-77
2022/08/02 10:18:59;;;;;;;3.92;2.00;;;;;;;24.71;47.59;101618.81;5003997;28;20378;-77
2022/08/02 10:21:32;;;;;;;2.92;1.83;;;;;;;24.84;47.85;101625.00;4991564;28;20029;-77
2022/08/02 10:24:29;;;;;;;3.28;1.80;;;;;;;24.80;48.79;101618.44;4989131;28;20054;-77
2022/08/02 10:26:55;;;;;;;5.15;1.73;;;;;;;24.91;44.92;101625.03;4992115;28;20125;-78
2022/08/02 10:29:35;;;;;;;2.78;1.80;;;;;;;24.96;45.78;101622.59;4993565;28;20022;-79
2022/08/02 10:32:09;;;;;;;3.75;2.25;;;;;;;24.85;45.58;101631.94;5008944;28;20029;-77
2022/08/02 10:34:37;;;;;;;3.67;1.95;;;;;;;24.87;45.85;101624.59;5003425;28;20069;-77
2022/08/02 10:37:05;;;;;;;3.22;2.03;;;;;;;24.85;45.44;101626.63;4998570;28;20076;-77
2022/08/02 10:39:40;;;;;;;;;;;;;;;25.09;47.51;101627.13;5002715;28;20025;-76
2022/08/02 10:42:06;;;;;;;2.17;1.80;;;;;;;25.18;45.31;101614.50;5020875;28;19913;-77
2022/08/02 10:44:32;;;;;;;3.28;1.70;;;;;;;25.21;45.15;101622.84;5011465;28;20091;-77
2022/08/02 10:47:13;;;;;;;3.00;1.55;;;;;;;25.33;45.99;101628.38;5014985;28;20037;-78
2022/08/02 10:49:53;;;;;;;2.58;1.63;;;;;;;25.27;45.53;101624.69;5020071;28;20037;-77
2022/08/02 10:52:20;;;;;;;2.85;1.67;;;;;;;25.06;43.95;101616.91;5000781;28;20481;-77
2022/08/02 10:55:08;;;;;;;2.92;1.90;;;;;;;25.32;45.27;101616.94;5015155;28;20036;-77
2022/08/02 10:57:35;;;;;;;3.17;1.80;;;;;;;25.33;43.29;101623.88;4999203;28;20030;-78
2022/08/02 11:00:11;;;;;;;2.30;1.58;;;;;;;25.42;43.35;101605.94;5005237;28;20064;-79
2022/08/02 11:02:38;;;;;;;2.00;1.70;;;;;;;25.43;42.28;101608.38;5003991;28;20030;-78
2022/08/02 11:05:12;;;;;;;3.42;1.80;;;;;;;25.55;42.79;101599.78;5006952;28;20017;-77
2022/08/02 11:07:43;;;;;;;3.65;1.77;;;;;;;25.59;42.49;101607.16;4999818;28;20506;-77
2022/08/02 11:10:35;;;;;;;4.03;1.70;;;;;;;25.71;43.85;101607.34;4995654;28;20171;-78
2022/08/02 11:13:02;;;;;;;2.10;1.58;;;;;;;25.79;43.83;101617.78;5006736;28;20429;-77
2022/08/02 11:15:28;;;;;;;2.97;1.60;;;;;;;25.88;42.16;101605.91;5012395;28;20033;-78
2022/08/02 11:17:55;;;;;;;2.78;1.70;;;;;;;26.03;42.59;101610.16;5013673;28;20633;-78
2022/08/02 11:20:22;;;;;;;2.97;1.58;;;;;;;26.00;41.86;101599.97;4993896;28;20026;-78
2022/08/02 11:22:50;;;;;;;2.13;1.60;;;;;;;26.02;41.17;101606.69;5005988;28;20462;-77
2022/08/02 11:25:21;;;;;;;3.50;1.55;;;;;;;26.11;41.50;101618.75;5006364;28;20029;-77
2022/08/02 11:27:51;;;;;;;2.72;1.50;;;;;;;26.28;40.91;101611.13;5004832;28;20565;-77
2022/08/02 11:30:16;;;;;;;3.58;1.50;;;;;;;26.33;40.65;101600.69;4994822;28;20037;-77
2022/08/02 11:32:42;;;;;;;2.67;1.58;;;;;;;26.44;41.75;101594.72;5002924;28;20030;-78